Tiempo atmosférico en la estación meteorológica de Alpandeire, Málaga (680 m.)



Fecha
DESCASC
Temp. máxima en grados centígrados (hora)
DESCASC
Temp. mínima en grados centígrados (hora)
DESCASC
Temp. media en grados centígrados
DESCASC
Racha de viento máxima en m/sg (hora)
DESCASC
Velocidad máxima media en intervalos de 10 minutos(hora)
DESCASC
Precipitaciones diarias en mm
DESCASC
Precipitaciones de 00:00 a 06:00 en mm
DESCASC
Precipitaciones de 06:00 a 12:00 en mm
DESCASC
Precipitaciones de 12:00 a 18:00 en mm
DESCASC
Precipitaciones de 18:00 a 24:00 en mm
DESCASC
22-11-2020 17.1 (13:30) 9.8 (23:50) 13.5 10 (01:30) 4.72 (20:40) 0 0 0 0 0
21-11-2020 15.8 (15:50) 11.5 (23:20) 13.7 9.17 (03:20) 4.72 (00:40) 0 0 0 0 0
20-11-2020 23.9 (15:30) 11 (08:20) 17.4 6.94 (00:50) 4.44 (00:50) 0 0 0 0 0
19-11-2020 21.9 (14:10) 10.6 (00:00) 16.3 7.5 (11:50) 3.89 (21:10) 0 0 0 0 0
18-11-2020 23.5 (15:10) 11.1 (00:00) 17.3 4.17 (14:20) 2.22 (15:40) 0 0 0 0 0
17-11-2020 25.9 (14:10) 13.5 (00:00) 19.7 4.17 (15:30) 2.5 (14:50) 0 0 0 0 0
16-11-2020 26.6 (14:50) 14.7 (00:00) 20.7 7.5 (14:00) 3.61 (12:00) 0 0 0 0 0
15-11-2020 24.8 (14:30) 12.2 (00:00) 18.5 4.17 (14:30) 2.78 (05:40) 0 0 0 0 0
14-11-2020 16.8 (15:30) 13 (00:00) 14.9 5.28 (01:50) 2.5 (01:50) 1.2 0 0.6 0 0.6
13-11-2020 20 (13:10) 13.3 (00:00) 16.7 7.5 (02:30) 5 (03:50) 0 0 0 0 0
12-11-2020 19.7 (14:30) 12.4 (00:00) 16.1 10 (13:10) 5 (05:30) 0 0 0 0 0
11-11-2020 18.2 (13:10) 12.1 (00:00) 15.2 9.17 (10:00) 4.72 (04:50) 0 0 0 0 0
10-11-2020 22.9 (14:30) 9.3 (00:00) 16.1 7.78 (22:10) 5 (22:10) 0 0 0 0 0
09-11-2020 21.4 (14:50) 10.5 (00:00) 15.9 4.72 (14:20) 2.5 (13:50) 0 0 0 0 0
08-11-2020 21.6 (15:20) 11.4 (00:00) 16.5 6.11 (16:10) 2.78 (15:20) 0 0 0 0 0
07-11-2020 -- (--) -- (--) -- -- (--) -- (--) -- 2.8 -- 0 0
06-11-2020 23.5 (14:40) 14.4 (00:00) 18.9 12.22 (11:10) 4.72 (12:10) 1.4 0 0 0 1.4
05-11-2020 17.5 (15:50) 11.5 (00:00) 14.5 18.06 (05:30) 7.5 (22:40) 65.4 20 41.2 4.2 0
04-11-2020 17.1 (12:00) 12.6 (00:00) 14.9 13.61 (23:50) 5.83 (16:20) 16 0 0 2.6 13.4
03-11-2020 25.3 (12:20) 13.7 (00:00) 19.5 4.72 (13:10) 2.5 (13:10) 0 0 0 0 0
02-11-2020 28.9 (14:30) 14.1 (00:00) 21.5 4.72 (13:50) 2.5 (16:00) 0 0 0 0 0
01-11-2020 28.9 (14:30) 13.8 (00:00) 21.3 5 (13:50) 2.78 (15:00) 0 0 0 0 0
31-10-2020 27.7 (14:20) 13.1 (00:00) 20.4 5.56 (00:20) 3.06 (14:40) 0 0 0 0 0
30-10-2020 23.7 (14:00) 13.9 (00:00) 18.8 7.5 (11:50) 4.17 (21:50) -- 0 -- 0 0
29-10-2020 24.7 (14:10) 13 (00:00) 18.9 8.89 (14:30) 4.17 (14:30) 0 0 0 0 0
28-10-2020 25.1 (14:20) 9.4 (00:00) 17.3 5 (14:30) 2.78 (13:40) 0 0 0 0 0

Gráficas

Temp. máximas Temp. mínimas Temp. medias Precipitaciones Rachas de viento máximas Velocidades máximas media en intervalos de 10 minutos

Datos horarios

Fecha y hora oficial Temperatura (ºC) Velocidad del viento (km/h) Dirección del viento Racha (km/h) Dirección de racha Precipitación (mm) Presión (hPa) Tendencia (hPa) Humedad (%)
2020-11-26 23:00:00 6.6 3 Nordeste 6 Este 0 -- -- 91
2020-11-26 22:00:00 6.9 0 Calma 15 Este 0 -- -- 90
2020-11-26 21:00:00 6.8 3 Noroeste 12 Este 0 -- -- 90
2020-11-26 20:00:00 7.4 3 Sudeste 24 Nordeste 0 -- -- 87
2020-11-26 19:00:00 7.4 13 Este 24 Este 3.4 -- -- 87
2020-11-26 18:00:00 8.2 5 Nordeste 10 Nordeste 3 -- -- 91
2020-11-26 17:00:00 8.5 0 Calma 9 Noroeste 0 -- -- 92
2020-11-26 16:00:00 8.3 4 Noroeste 18 Sur 0.8 -- -- 92
2020-11-26 15:00:00 9 2 Sur 11 Sudeste 0 -- -- 90
2020-11-26 14:00:00 8.9 4 Noroeste 26 Oeste 0.4 -- -- 91
2020-11-26 13:00:00 8.8 6 Oeste 18 Oeste 0 -- -- 91
2020-11-26 12:00:00 8.9 6 Oeste 15 Noroeste 0 -- -- 93
2020-11-26 11:00:00 8.5 5 Oeste 10 Sudoeste 0 -- -- 91
2020-11-26 10:00:00 8.3 4 Sudoeste 14 Este 0.6 -- -- 92
2020-11-26 09:00:00 8.2 3 Este 14 Este 1.4 -- -- 89
2020-11-26 08:00:00 8.5 0 Calma 14 Sur 1.4 -- -- 93
2020-11-26 07:00:00 8.9 4 Sudoeste 11 Sur 2.6 -- -- 94
2020-11-26 06:00:00 9.1 3 Nordeste 9 Sudeste 0.8 -- -- 92
2020-11-26 05:00:00 9.2 5 Este 13 Sudeste 0.2 -- -- 91
2020-11-26 04:00:00 9 6 Nordeste 10 Este 0 -- -- 92
2020-11-26 03:00:00 9.5 0 Calma 12 Oeste 0.8 -- -- 95
2020-11-26 02:00:00 9.8 5 Oeste 44 Noroeste 15.2 -- -- 95
2020-11-26 01:00:00 11 11 Oeste 44 Sur 10.6 -- -- 93
2020-11-26 00:00:00 11.3 11 Sudeste 32 Este 0.2 -- -- 90
2020-11-25 23:00:00 10.8 10 Sudeste 25 Sudeste 0 -- -- 91
2020-11-25 22:00:00 10.2 8 Este 18 Sur 5.2 -- -- 93
2020-11-25 21:00:00 10 7 Noroeste 30 Este 10.6 -- -- 92
2020-11-25 20:00:00 10.1 7 Este 18 Este 0.4 -- -- 90
2020-11-25 19:00:00 9.8 0 Calma 6 Noroeste 0.2 -- -- 94
2020-11-25 18:00:00 10.1 2 Sur 7 Este 2.4 -- -- 92
2020-11-25 17:00:00 10.5 3 Este 38 Oeste 8 -- -- 89
2020-11-25 16:00:00 12.3 2 Este 12 Sudoeste 1 -- -- 88
2020-11-25 15:00:00 13.2 5 Oeste 15 Oeste 0 -- -- 87
2020-11-25 14:00:00 12.7 6 Oeste 25 Sudoeste 1.6 -- -- 89
2020-11-25 13:00:00 14.3 11 Oeste 29 Sur 0 -- -- 79
2020-11-25 12:00:00 14.4 11 Sudoeste 21 Sur 0 -- -- 82
2020-11-25 11:00:00 12.7 8 Oeste 15 Oeste 0 -- -- 88
2020-11-25 10:00:00 12.3 6 Sudoeste 14 Sudoeste 0 -- -- 89
2020-11-25 09:00:00 11.5 0 Calma 9 Este 0 -- -- 90
2020-11-25 08:00:00 11.1 0 Calma 6 Nordeste 0 -- -- 90
2020-11-25 07:00:00 10.8 2 Este 4 Este 0 -- -- 91
2020-11-25 06:00:00 10.2 0 Calma 7 Nordeste 0 -- -- 88
2020-11-25 05:00:00 11 0 Calma 3 Este 0 -- -- 89
2020-11-25 04:00:00 11.4 0 Calma 8 Oeste 0 -- -- 89
2020-11-25 03:00:00 11.6 3 Noroeste 9 Oeste 0 -- -- 89
2020-11-25 02:00:00 11.6 2 Oeste 8 Oeste 0 -- -- 89
2020-11-25 01:00:00 11.7 5 Oeste 12 Oeste 0 -- -- 89
2020-11-25 00:00:00 11.7 4 Oeste 16 Noroeste 0 -- -- 90
2020-11-24 23:00:00 12.1 5 Noroeste 13 Oeste 0 -- -- 87
2020-11-24 22:00:00 12 0 Calma 6 Este 0 -- -- 83
2020-11-24 21:00:00 12.4 2 Noroeste 8 Este 0 -- -- 78
2020-11-24 20:00:00 12.3 0 Calma 9 Este 0 -- -- 78
2020-11-24 19:00:00 12.8 2 Nordeste 4 Sur 0 -- -- 75
2020-11-24 18:00:00 13.7 3 Sudoeste 14 Sudoeste 0 -- -- 71
2020-11-24 17:00:00 15.5 9 Sudoeste 18 Sudoeste 0 -- -- 65
2020-11-24 16:00:00 18.6 9 Oeste 17 Oeste 0 -- -- 54
2020-11-24 15:00:00 19.3 8 Oeste 16 Oeste 0 -- -- 52
2020-11-24 14:00:00 18.9 8 Sudoeste 16 Sudoeste 0 -- -- 55
2020-11-24 13:00:00 17.9 5 Sudeste 17 Este 0 -- -- 60
2020-11-24 12:00:00 16 7 Sudeste 21 Sudeste 0 -- -- 64
2020-11-24 11:00:00 14.1 5 Sudeste 18 Este 0 -- -- 70
2020-11-24 10:00:00 11.4 11 Nordeste 25 Este 0 -- -- 78
2020-11-24 09:00:00 10.2 14 Este 24 Este 0 -- -- 81
2020-11-24 08:00:00 9.8 15 Este 26 Este 0 -- -- 81
2020-11-24 07:00:00 9.8 14 Este 24 Este 0 -- -- 80
2020-11-24 06:00:00 9.7 14 Nordeste 28 Este 0 -- -- 79
2020-11-24 05:00:00 9.6 14 Este 28 Nordeste 0 -- -- 77
2020-11-24 04:00:00 9.8 17 Nordeste 27 Nordeste 0 -- -- 73
2020-11-24 03:00:00 9.8 13 Este 26 Nordeste 0 -- -- 73
2020-11-24 02:00:00 10.1 13 Este 29 Nordeste 0 -- -- 61
2020-11-24 01:00:00 10.1 9 Este 27 Este 0 -- -- 57
2020-11-24 00:00:00 10.1 12 Nordeste 22 Este 0 -- -- 54
2020-11-23 23:00:00 9.9 12 Este 25 Este 0 -- -- 55
2020-11-23 22:00:00 9.7 8 Este 19 Este 0 -- -- 59
2020-11-23 21:00:00 9.9 12 Este 23 Nordeste 0 -- -- 68
2020-11-23 20:00:00 10 12 Este 23 Este 0 -- -- 74
2020-11-23 19:00:00 10.5 8 Nordeste 19 Sudeste 0 -- -- 77
2020-11-23 18:00:00 11.8 6 Este 17 Nordeste 0 -- -- 72
2020-11-23 17:00:00 13.1 7 Sudeste 23 Sudeste 0 -- -- 68
2020-11-23 16:00:00 15.4 10 Sudeste 27 Este 0 -- -- 58
2020-11-23 15:00:00 16.2 14 Sur 28 Sudoeste 0 -- -- 57
2020-11-23 14:00:00 16.8 10 Sudeste 32 Este 0 -- -- 55
2020-11-23 13:00:00 16.2 12 Sudeste 35 Este 0 -- -- 56
2020-11-23 12:00:00 14.5 9 Sudeste 30 Este 0 -- -- 60
2020-11-23 11:00:00 12.9 10 Este 32 Este 0 -- -- 65
2020-11-23 10:00:00 10.9 9 Este 29 Este 0 -- -- 72
2020-11-23 09:00:00 9.4 12 Este 28 Nordeste 0 -- -- 76
2020-11-23 08:00:00 9.2 13 Este 26 Este 0 -- -- 77
2020-11-23 07:00:00 9.2 17 Este 29 Este 0 -- -- 76
2020-11-23 06:00:00 9.2 15 Este 30 Nordeste 0 -- -- 76
2020-11-23 05:00:00 9.3 17 Este 29 Este 0 -- -- 75
2020-11-23 04:00:00 9.4 15 Este 34 Este 0 -- -- 73
2020-11-23 03:00:00 9.5 14 Este 27 Este 0 -- -- 75
2020-11-23 02:00:00 9.6 15 Este 26 Nordeste 0 -- -- 74
2020-11-23 01:00:00 9.7 13 Nordeste 24 Este 0 -- -- 75
2020-11-23 00:00:00 9.8 13 Este 23 Sudeste 0 -- -- 70
2020-11-22 23:00:00 10.1 9 Este 25 Nordeste 0 -- -- 65
2020-11-22 22:00:00 10.3 13 Este 26 Nordeste 0 -- -- 64
2020-11-22 21:00:00 10.4 8 Este 26 Nordeste 0 -- -- 59
2020-11-22 20:00:00 10.2 8 Este 18 Este 0 -- -- 70
2020-11-22 19:00:00 10.8 3 Este 21 Este 0 -- -- 75
2020-11-22 18:00:00 12 4 Sudeste 18 Sudeste 0 -- -- 73
2020-11-22 17:00:00 13.5 9 Sudeste 26 Sudeste 0 -- -- 67
2020-11-22 16:00:00 15.4 13 Sudeste 26 Sudeste 0 -- -- 61
2020-11-22 15:00:00 16.6 14 Sur 31 Sur 0 -- -- 56
2020-11-22 14:00:00 17 13 Sudeste 28 Sudeste 0 -- -- 53
2020-11-22 13:00:00 16.2 10 Sudeste 31 Sur 0 -- -- 58
2020-11-22 12:00:00 14.7 12 Sudeste 30 Sudeste 0 -- -- 64
2020-11-22 11:00:00 12.7 12 Sudeste 30 Sudeste 0 -- -- 72
2020-11-22 10:00:00 11.4 10 Este 26 Sudeste 0 -- -- 75
2020-11-22 09:00:00 10 8 Este 23 Este 0 -- -- 78
2020-11-22 08:00:00 9.9 8 Este 21 Sudeste 0 -- -- 75
2020-11-22 07:00:00 10.3 11 Este 25 Este 0 -- -- 77
2020-11-22 06:00:00 10.5 9 Este 25 Este 0 -- -- 75
2020-11-22 05:00:00 10.3 9 Este 25 Este 0 -- -- 69
2020-11-22 04:00:00 10.6 7 Este 30 Sudeste 0 -- -- 76
2020-11-22 03:00:00 11.1 11 Este 31 Este 0 -- -- 78
2020-11-22 02:00:00 11.4 8 Sudeste 36 Sudeste 0 -- -- 79
2020-11-22 01:00:00 11.5 8 Este 34 Sudeste 0 -- -- 78
2020-11-22 00:00:00 11.5 8 Este 28 Este 0 -- -- 78
2020-11-21 23:00:00 11.6 8 Este 21 Sudeste 0 -- -- 77
2020-11-21 22:00:00 11.8 8 Este 25 Sudeste 0 -- -- 75
2020-11-21 21:00:00 11.9 6 Este 21 Este 0 -- -- 75
2020-11-21 20:00:00 11.9 10 Este 23 Este 0 -- -- 75
2020-11-21 19:00:00 12.2 5 Sudeste 17 Este 0 -- -- 73
2020-11-21 18:00:00 13 5 Sudeste 21 Sudeste 0 -- -- 71
2020-11-21 17:00:00 14.7 13 Sudeste 28 Sudeste 0 -- -- 69
2020-11-21 16:00:00 15.8 9 Sudeste 31 Sudoeste 0 -- -- 65
2020-11-21 15:00:00 13.4 10 Sudeste 33 Este 0 -- -- 72
2020-11-21 14:00:00 14.9 12 Sudeste 29 Sudeste 0 -- -- 72
2020-11-21 13:00:00 13.6 11 Sudeste 31 Sudeste 0 -- -- 77
2020-11-21 12:00:00 13.2 12 Sudeste 31 Sur 0 -- -- 80
2020-11-21 11:00:00 13.6 8 Este 30 Sudeste 0 -- -- 80
2020-11-21 10:00:00 13.4 10 Este 27 Este 0 -- -- 85
2020-11-21 09:00:00 13.2 8 Sudeste 21 Sudeste 0 -- -- 84
2020-11-21 08:00:00 12.7 5 Este 25 Nordeste 0 -- -- 83
2020-11-21 07:00:00 12.7 11 Este 30 Este 0 -- -- 82
2020-11-21 06:00:00 12.5 14 Este 23 Nordeste 0 -- -- 80
2020-11-21 05:00:00 12.5 12 Este 25 Este 0 -- -- 79
2020-11-21 04:00:00 12.6 12 Este 33 Este 0 -- -- 80
2020-11-21 03:00:00 12.7 10 Este 29 Nordeste 0 -- -- 79
2020-11-21 02:00:00 12.9 14 Este 29 Este 0 -- -- 76
2020-11-21 01:00:00 13.3 11 Este 24 Este 0 -- -- 75
2020-11-21 00:00:00 12.9 6 Este 20 Nordeste 0 -- -- 76
2020-11-20 23:00:00 12.9 7 Este 16 Este 0 -- -- 79
2020-11-20 22:00:00 13.4 6 Este 16 Este 0 -- -- 75
2020-11-20 21:00:00 14.6 8 Este 20 Este 0 -- -- 64
2020-11-20 20:00:00 14 0 Calma 10 Nordeste 0 -- -- 80
2020-11-20 19:00:00 15.4 0 Calma 4 Sur 0 -- -- 74
2020-11-20 18:00:00 17.7 2 Oeste 9 Sudoeste 0 -- -- 68
2020-11-20 17:00:00 19.8 5 Oeste 13 Sudoeste 0 -- -- 63
2020-11-20 16:00:00 23 6 Sudoeste 15 Oeste 0 -- -- 54
2020-11-20 15:00:00 23.7 7 Sudoeste 15 Sudoeste 0 -- -- 51
2020-11-20 14:00:00 23.1 8 Sur 15 Oeste 0 -- -- 53
2020-11-20 13:00:00 21.3 8 Sudoeste 21 Sur 0 -- -- 60
2020-11-20 12:00:00 19.4 10 Sur 21 Sudoeste 0 -- -- 64
2020-11-20 11:00:00 17.1 11 Sur 21 Sur 0 -- -- 68
2020-11-20 10:00:00 13.7 3 Noroeste 10 Sudoeste 0 -- -- 80
2020-11-20 09:00:00 11.5 3 Oeste 6 Nordeste 0 -- -- 85
2020-11-20 08:00:00 11.3 0 Calma 10 Este 0 -- -- 83
2020-11-20 07:00:00 11.9 4 Este 14 Este 0 -- -- 84
2020-11-20 06:00:00 12.1 4 Este 21 Este 0 -- -- 85
2020-11-20 05:00:00 12.4 8 Este 16 Este 0 -- -- 83
2020-11-20 04:00:00 12.3 7 Este 18 Este 0 -- -- 83
2020-11-20 03:00:00 12.5 9 Nordeste 24 Este 0 -- -- 82
2020-11-20 02:00:00 12.6 8 Este 19 Este 0 -- -- 81
2020-11-20 01:00:00 12.9 9 Este 25 Nordeste 0 -- -- 81
2020-11-20 00:00:00 12.6 5 Nordeste 19 Este 0 -- -- 83
2020-11-19 23:00:00 12.7 4 Nordeste 21 Sur 0 -- -- 83
2020-11-19 22:00:00 12.9 7 Este 24 Este 0 -- -- 82
2020-11-19 21:00:00 13.1 14 Este 22 Este 0 -- -- 82
2020-11-19 20:00:00 13.2 3 Oeste 10 Oeste 0 -- -- 81
2020-11-19 19:00:00 14.2 6 Este 18 Este 0 -- -- 77
2020-11-19 18:00:00 15.3 9 Este 21 Este 0 -- -- 75
2020-11-19 17:00:00 17.2 8 Este 21 Sudeste 0 -- -- 72
2020-11-19 16:00:00 20.2 6 Este 25 Este 0 -- -- 63
2020-11-19 15:00:00 21.5 7 Sudeste 22 Este 0 -- -- 59
2020-11-19 14:00:00 21.7 7 Sur 23 Sudeste 0 -- -- 58
2020-11-19 13:00:00 20.9 8 Sudeste 23 Este 0 -- -- 60
2020-11-19 12:00:00 19.4 10 Sudeste 27 Sudoeste 0 -- -- 65
2020-11-19 11:00:00 16.9 4 Norte 18 Oeste 0 -- -- 73
2020-11-19 10:00:00 13.9 4 Sudoeste 17 Este 0 -- -- 86
2020-11-19 09:00:00 11.3 2 Norte 8 Sudeste 0 -- -- 88
2020-11-19 08:00:00 10.6 3 Este 7 Noroeste 0 -- -- 86
2020-11-19 07:00:00 10.8 2 Este 5 Noroeste 0 -- -- 85
2020-11-19 06:00:00 11.1 0 Calma 5 Noroeste 0 -- -- 84
2020-11-19 05:00:00 11.1 0 Calma 5 Noroeste 0 -- -- 86
2020-11-19 04:00:00 11.1 0 Calma 4 Este 0 -- -- 88
2020-11-19 03:00:00 11.1 0 Calma 4 Oeste 0 -- -- 87
2020-11-19 02:00:00 11.6 0 Calma 5 Oeste 0 -- -- 86
2020-11-19 01:00:00 12.1 2 Noroeste 6 Sudoeste 0 -- -- 87
2020-11-19 00:00:00 12.7 0 Calma 3 Norte 0 -- -- 90
2020-11-18 23:00:00 13.3 0 Calma 5 Este 0 -- -- 90
2020-11-18 22:00:00 13.9 0 Calma 5 Norte 0 -- -- 89
2020-11-18 21:00:00 14.1 2 Nordeste 5 Norte 0 -- -- 87
2020-11-18 20:00:00 14.7 0 Calma 4 Norte 0 -- -- 83
2020-11-18 19:00:00 16 0 Calma 4 Noroeste 0 -- -- 78
2020-11-18 18:00:00 18.1 0 Calma 10 Sudoeste 0 -- -- 72
2020-11-18 17:00:00 20.3 5 Sudoeste 11 Sudoeste 0 -- -- 64
2020-11-18 16:00:00 22.3 6 Sur 14 Sur 0 -- -- 58
2020-11-18 15:00:00 23.4 5 Oeste 15 Sur 0 -- -- 55
2020-11-18 14:00:00 22.6 6 Sur 12 Sur 0 -- -- 57
2020-11-18 13:00:00 20.3 4 Sudoeste 11 Oeste 0 -- -- 65
2020-11-18 12:00:00 17.6 3 Oeste 8 Sudoeste 0 -- -- 75
2020-11-18 11:00:00 13.4 0 Calma 5 Oeste 0 -- -- 89
2020-11-18 10:00:00 12.1 0 Calma 3 Este 0 -- -- 91
2020-11-18 09:00:00 11.1 0 Calma 3 Este 0 -- -- 90
2020-11-18 08:00:00 11.2 0 Calma 3 Este 0 -- -- 91
2020-11-18 07:00:00 11.5 0 Calma 3 Norte 0 -- -- 90
2020-11-18 06:00:00 11.5 0 Calma 4 Este 0 -- -- 85
2020-11-18 05:00:00 12.2 0 Calma 4 Nordeste 0 -- -- 80
2020-11-18 04:00:00 12.7 0 Calma 5 Noroeste 0 -- -- 76
2020-11-18 03:00:00 12.6 0 Calma 4 Sudeste 0 -- -- 72
2020-11-18 02:00:00 13.1 0 Calma 4 Este 0 -- -- 83
2020-11-18 01:00:00 13.1 2 Este 4 Este 0 -- -- 77
2020-11-18 00:00:00 13.8 0 Calma 4 Este 0 -- -- 83
2020-11-17 23:00:00 14.2 0 Calma 3 Este 0 -- -- 87
2020-11-17 22:00:00 14.5 0 Calma 3 Este 0 -- -- 86
2020-11-17 21:00:00 15.1 0 Calma 2 Oeste 0 -- -- 83
2020-11-17 20:00:00 16.2 0 Calma 3 Este 0 -- -- 80
2020-11-17 19:00:00 17.4 0 Calma 3 Noroeste 0 -- -- 75
2020-11-17 18:00:00 19.4 2 Oeste 10 Sudoeste 0 -- -- 72
2020-11-17 17:00:00 21 8 Sudoeste 13 Oeste 0 -- -- 68
2020-11-17 16:00:00 24.3 6 Oeste 15 Sudoeste 0 -- -- 59
2020-11-17 15:00:00 25.5 9 Sudoeste 14 Sudoeste 0 -- -- 52
2020-11-17 14:00:00 25.6 7 Oeste 12 Oeste 0 -- -- 48
2020-11-17 13:00:00 25 6 Sur 11 Sur 0 -- -- 49
2020-11-17 12:00:00 23.5 8 Sudoeste 14 Sudoeste 0 -- -- 50
2020-11-17 11:00:00 20.9 4 Sudoeste 12 Sudeste 0 -- -- 57
2020-11-17 10:00:00 16.4 0 Calma 6 Sudeste 0 -- -- 68
2020-11-17 09:00:00 13.9 2 Este 7 Nordeste 0 -- -- 71
2020-11-17 08:00:00 13.7 2 Nordeste 6 Nordeste 0 -- -- 67
2020-11-17 07:00:00 14.6 4 Nordeste 12 Nordeste 0 -- -- 63
2020-11-17 06:00:00 14.3 4 Nordeste 9 Nordeste 0 -- -- 63
2020-11-17 05:00:00 15 5 Nordeste 10 Nordeste 0 -- -- 63
2020-11-17 04:00:00 15.6 6 Nordeste 9 Nordeste 0 -- -- 61
2020-11-17 03:00:00 15.3 3 Este 8 Sudeste 0 -- -- 63
2020-11-17 02:00:00 15.2 3 Nordeste 9 Nordeste 0 -- -- 61
2020-11-17 01:00:00 15.3 5 Nordeste 9 Este 0 -- -- 57
2020-11-17 00:00:00 15.4 3 Este 12 Sudeste 0 -- -- 57
2020-11-16 23:00:00 16.2 3 Sudeste 13 Nordeste 0 -- -- 55
2020-11-16 22:00:00 15.9 2 Sudeste 8 Este 0 -- -- 58
2020-11-16 21:00:00 16.6 0 Calma 9 Sudoeste 0 -- -- 63
2020-11-16 20:00:00 17.4 3 Nordeste 8 Sur 0 -- -- 64
2020-11-16 19:00:00 18.8 3 Sur 12 Noroeste 0 -- -- 59
2020-11-16 18:00:00 20.6 3 Noroeste 15 Oeste 0 -- -- 54
2020-11-16 17:00:00 22.5 8 Oeste 20 Oeste 0 -- -- 49
2020-11-16 16:00:00 25.1 10 Oeste 21 Sudoeste 0 -- -- 43
2020-11-16 15:00:00 26.6 11 Oeste 26 Oeste 0 -- -- 38
2020-11-16 14:00:00 26.3 10 Oeste 27 Oeste 0 -- -- 37
2020-11-16 13:00:00 25.3 9 Oeste 18 Oeste 0 -- -- 39
2020-11-16 12:00:00 23 13 Oeste 21 Oeste 0 -- -- 42
2020-11-16 11:00:00 20.9 3 Sur 12 Oeste 0 -- -- 55
2020-11-16 10:00:00 16.7 4 Noroeste 14 Noroeste 0 -- -- 58
2020-11-16 09:00:00 14.9 2 Este 8 Nordeste 0 -- -- 71
2020-11-16 08:00:00 15.2 8 Nordeste 11 Nordeste 0 -- -- 65
2020-11-16 07:00:00 15.1 7 Nordeste 11 Nordeste 0 -- -- 67
2020-11-16 06:00:00 14.8 2 Nordeste 5 Sudeste 0 -- -- 67
2020-11-16 05:00:00 15.2 2 Este 6 Nordeste 0 -- -- 68
2020-11-16 04:00:00 15.6 0 Calma 9 Nordeste 0 -- -- 68
2020-11-16 03:00:00 16.2 7 Nordeste 10 Este 0 -- -- 66
2020-11-16 02:00:00 16.2 4 Nordeste 8 Nordeste 0 -- -- 66
2020-11-16 01:00:00 16.4 4 Nordeste 10 Nordeste 0 -- -- 67
2020-11-16 00:00:00 15.9 4 Nordeste 8 Nordeste 0 -- -- 69
2020-11-15 23:00:00 16.4 3 Nordeste 11 Noroeste 0 -- -- 69
2020-11-15 22:00:00 16.8 4 Nordeste 8 Nordeste 0 -- -- 67
2020-11-15 21:00:00 16.6 0 Calma 9 Nordeste 0 -- -- 73
2020-11-15 20:00:00 17.1 3 Este 6 Este 0 -- -- 77
2020-11-15 19:00:00 18.1 0 Calma 4 Noroeste 0 -- -- 74
2020-11-15 18:00:00 20.1 0 Calma 10 Noroeste 0 -- -- 67
2020-11-15 17:00:00 22.2 5 Sudoeste 12 Sudoeste 0 -- -- 62
2020-11-15 16:00:00 24.4 6 Oeste 14 Oeste 0 -- -- 57
2020-11-15 15:00:00 24.7 8 Sudoeste 15 Sudoeste 0 -- -- 56
2020-11-15 14:00:00 24.2 4 Noroeste 10 Oeste 0 -- -- 55
2020-11-15 13:00:00 21.8 3 Sur 6 Oeste 0 -- -- 64
2020-11-15 12:00:00 21.5 4 Oeste 7 Sur 0 -- -- 69
2020-11-15 11:00:00 18.9 0 Calma 3 Sudoeste 0 -- -- 82
2020-11-15 10:00:00 15.4 0 Calma 3 Sudeste 0 -- -- 90
2020-11-15 09:00:00 13.6 3 Este 8 Nordeste 0 -- -- 90
2020-11-15 08:00:00 12.9 5 Nordeste 8 Nordeste 0 -- -- 90
2020-11-15 07:00:00 13.1 0 Calma 7 Este 0 -- -- 89
2020-11-15 06:00:00 13.2 4 Nordeste 14 Nordeste 0 -- -- 88
2020-11-15 05:00:00 12.3 3 Nordeste 9 Nordeste 0 -- -- 91
2020-11-15 04:00:00 12.6 5 Este 9 Nordeste 0 -- -- 91
2020-11-15 03:00:00 12.4 5 Nordeste 8 Nordeste 0 -- -- 92
2020-11-15 02:00:00 12.4 0 Calma 6 Nordeste 0 -- -- 92
2020-11-15 01:00:00 12.5 2 Este 6 Este 0 -- -- 92
2020-11-15 00:00:00 13 0 Calma 6 Nordeste 0 -- -- 92
2020-11-14 23:00:00 13.5 3 Nordeste 5 Oeste 0 -- -- 92
2020-11-14 22:00:00 14.3 0 Calma 5 Este 0 -- -- 92
2020-11-14 21:00:00 14.9 2 Este 5 Este 0 -- -- 93
2020-11-14 20:00:00 15.2 2 Norte 6 Este 0 -- -- 90
2020-11-14 19:00:00 15.5 0 Calma 9 Oeste 0.6 -- -- 91
2020-11-14 18:00:00 15.9 2 Oeste 6 Sudoeste 0 -- -- 88
2020-11-14 17:00:00 16.5 0 Calma 7 Oeste 0 -- -- 86
2020-11-14 16:00:00 16.5 3 Noroeste 10 Oeste 0 -- -- 85
2020-11-14 15:00:00 16.2 2 Noroeste 10 Sudoeste 0 -- -- 87
2020-11-14 14:00:00 15.7 2 Sudoeste 14 Sudoeste 0 -- -- 90
2020-11-14 13:00:00 15.4 4 Sudoeste 12 Oeste 0 -- -- 90
2020-11-14 12:00:00 14.7 0 Calma 12 Oeste 0 -- -- 90
2020-11-14 11:00:00 14.5 6 Oeste 12 Oeste 0 -- -- 91
2020-11-14 10:00:00 14.4 3 Nordeste 6 Oeste 0.6 -- -- 90
2020-11-14 09:00:00 14.5 0 Calma 8 Norte 0 -- -- 89
2020-11-14 08:00:00 14.2 0 Calma 5 Nordeste 0 -- -- 87
2020-11-14 07:00:00 14 0 Calma 9 Sudoeste 0 -- -- 86
2020-11-14 06:00:00 14.2 4 Este 9 Este 0 -- -- 85
2020-11-14 05:00:00 13.9 2 Este 5 Sudoeste 0 -- -- 86
2020-11-14 04:00:00 14 3 Sur 8 Este 0 -- -- 85
2020-11-14 03:00:00 14.3 0 Calma 17 Nordeste 0 -- -- 83
2020-11-14 02:00:00 14.5 8 Este 19 Este 0 -- -- 80
2020-11-14 01:00:00 14.2 2 Nordeste 10 Sudeste 0 -- -- 87
2020-11-14 00:00:00 14.4 4 Este 11 Este 0 -- -- 77
2020-11-13 23:00:00 14.3 0 Calma 11 Este 0 -- -- 87
2020-11-13 22:00:00 14.6 5 Nordeste 10 Nordeste 0 -- -- 87
2020-11-13 21:00:00 14.9 0 Calma 4 Sudoeste 0 -- -- 88
2020-11-13 20:00:00 15.1 0 Calma 2 Sudeste 0 -- -- 84
2020-11-13 19:00:00 15.5 2 Sudoeste 6 Noroeste 0 -- -- 84
2020-11-13 18:00:00 16.4 2 Sudoeste 8 Noroeste 0 -- -- 80
2020-11-13 17:00:00 17 3 Oeste 13 Oeste 0 -- -- 77
2020-11-13 16:00:00 18.5 5 Oeste 11 Oeste 0 -- -- 69
2020-11-13 15:00:00 19.5 7 Sudoeste 13 Oeste 0 -- -- 64
2020-11-13 14:00:00 19.5 4 Sudoeste 16 Sudoeste 0 -- -- 65
2020-11-13 13:00:00 19.7 5 Sudoeste 16 Sudoeste 0 -- -- 65
2020-11-13 12:00:00 19.2 7 Sudoeste 13 Sur 0 -- -- 65
2020-11-13 11:00:00 17.4 6 Sur 17 Sur 0 -- -- 70
2020-11-13 10:00:00 15.2 7 Sur 19 Este 0 -- -- 79
2020-11-13 09:00:00 13.6 11 Este 18 Este 0 -- -- 83
2020-11-13 08:00:00 13.4 12 Este 23 Este 0 -- -- 83
2020-11-13 07:00:00 13.3 10 Este 23 Este 0 -- -- 84
2020-11-13 06:00:00 13.4 13 Este 23 Este 0 -- -- 83
2020-11-13 05:00:00 13.5 13 Nordeste 23 Nordeste 0 -- -- 83
2020-11-13 04:00:00 13.4 13 Este 27 Nordeste 0 -- -- 81
2020-11-13 03:00:00 13.4 16 Nordeste 27 Este 0 -- -- 81
2020-11-13 02:00:00 13.3 9 Nordeste 22 Este 0 -- -- 81
2020-11-13 01:00:00 13.3 10 Este 26 Este 0 -- -- 79
2020-11-13 00:00:00 13.6 12 Este 21 Nordeste 0 -- -- 81
2020-11-12 23:00:00 13.8 10 Este 23 Este 0 -- -- 80
2020-11-12 22:00:00 13.5 11 Este 24 Este 0 -- -- 83
2020-11-12 21:00:00 13.5 9 Este 24 Sudeste 0 -- -- 82
2020-11-12 20:00:00 13.6 9 Este 23 Nordeste 0 -- -- 81
2020-11-12 19:00:00 13.9 10 Este 20 Este 0 -- -- 80
2020-11-12 18:00:00 14.7 8 Este 23 Sudeste 0 -- -- 76
2020-11-12 17:00:00 15.7 9 Este 22 Sudeste 0 -- -- 73
2020-11-12 16:00:00 16.6 7 Sudeste 29 Sudoeste 0 -- -- 69
2020-11-12 15:00:00 18.3 11 Sudeste 29 Sudeste 0 -- -- 62
2020-11-12 14:00:00 18.9 14 Sudeste 36 Sudeste 0 -- -- 62
2020-11-12 13:00:00 18.5 10 Sudeste 29 Sudeste 0 -- -- 64
2020-11-12 12:00:00 17.9 8 Sudeste 30 Este 0 -- -- 64
2020-11-12 11:00:00 15.7 10 Sudeste 24 Sudeste 0 -- -- 71
2020-11-12 10:00:00 13.9 6 Este 24 Este 0 -- -- 76
2020-11-12 09:00:00 13.1 14 Este 29 Este 0 -- -- 76
2020-11-12 08:00:00 12.6 13 Este 28 Este 0 -- -- 77
2020-11-12 07:00:00 12.4 7 Este 21 Este 0 -- -- 77
2020-11-12 06:00:00 12.7 9 Este 31 Nordeste 0 -- -- 73
2020-11-12 05:00:00 12.5 13 Este 25 Este 0 -- -- 76
2020-11-12 04:00:00 12.4 8 Este 25 Este 0 -- -- 79
2020-11-12 03:00:00 12.6 8 Este 26 Este 0 -- -- 80
2020-11-12 02:00:00 12.5 10 Este 20 Este 0 -- -- 78
2020-11-12 01:00:00 12.4 7 Este 19 Este 0 -- -- 75
2020-11-12 00:00:00 12.6 8 Este 23 Nordeste 0 -- -- 74
2020-11-11 23:00:00 12.5 8 Este 18 Este 0 -- -- 74
2020-11-11 22:00:00 12.5 6 Este 18 Este 0 -- -- 74
2020-11-11 21:00:00 12.6 5 Este 15 Este 0 -- -- 77
2020-11-11 20:00:00 13.3 4 Este 26 Este 0 -- -- 74
2020-11-11 19:00:00 13.8 13 Este 23 Este 0 -- -- 74
2020-11-11 18:00:00 14.8 4 Este 16 Este 0 -- -- 72
2020-11-11 17:00:00 16 4 Sudeste 22 Sudeste 0 -- -- 72
2020-11-11 16:00:00 17.2 9 Sudeste 26 Sudeste 0 -- -- 67
2020-11-11 15:00:00 17.5 9 Sudeste 24 Este 0 -- -- 66
2020-11-11 14:00:00 17.3 11 Sudeste 28 Sur 0 -- -- 66
2020-11-11 13:00:00 17.9 12 Sur 32 Sur 0 -- -- 64
2020-11-11 12:00:00 16.8 14 Sudeste 31 Este 0 -- -- 66
2020-11-11 11:00:00 15.3 12 Sudeste 29 Este 0 -- -- 69
2020-11-11 10:00:00 14.2 13 Este 33 Sudeste 0 -- -- 72
2020-11-11 09:00:00 12.9 10 Este 24 Sudeste 0 -- -- 76
2020-11-11 08:00:00 12.1 6 Este 16 Sudeste 0 -- -- 79
2020-11-11 07:00:00 12.4 5 Este 22 Sudeste 0 -- -- 76
2020-11-11 06:00:00 12.7 8 Este 25 Este 0 -- -- 73
2020-11-11 05:00:00 13.2 15 Este 29 Este 0 -- -- 73
2020-11-11 04:00:00 12.8 11 Este 20 Este 0 -- -- 71
2020-11-11 03:00:00 12.7 9 Este 19 Este 0 -- -- 71
2020-11-11 02:00:00 13.3 9 Este 23 Sudeste 0 -- -- 76
2020-11-11 01:00:00 13.5 8 Este 21 Este 0 -- -- 74
2020-11-11 00:00:00 13.9 12 Este 24 Este 0 -- -- 71
2020-11-10 23:00:00 14.1 9 Este 28 Este 0 -- -- 68
2020-11-10 22:00:00 14.3 17 Este 28 Este 0 -- -- 66
2020-11-10 21:00:00 14.3 10 Este 19 Nordeste 0 -- -- 68
2020-11-10 20:00:00 14.2 0 Calma 14 Nordeste 0 -- -- 75
2020-11-10 19:00:00 15.1 3 Este 20 Nordeste 0 -- -- 73
2020-11-10 18:00:00 17 7 Nordeste 16 Nordeste 0 -- -- 70
2020-11-10 17:00:00 18.5 3 Sur 18 Sur 0 -- -- 64
2020-11-10 16:00:00 21.7 9 Sudoeste 21 Sudoeste 0 -- -- 52
2020-11-10 15:00:00 22.8 8 Sur 23 Sur 0 -- -- 47
2020-11-10 14:00:00 22.5 10 Sudoeste 22 Sudoeste 0 -- -- 48
2020-11-10 13:00:00 21.6 8 Sur 19 Sur 0 -- -- 50
2020-11-10 12:00:00 20.1 9 Sudoeste 16 Sudoeste 0 -- -- 55
2020-11-10 11:00:00 17.7 6 Sudoeste 12 Sudoeste 0 -- -- 61
2020-11-10 10:00:00 13.4 2 Sudoeste 4 Sudoeste 0 -- -- 74
2020-11-10 09:00:00 10 0 Calma 5 Este 0 -- -- 81
2020-11-10 08:00:00 9.6 0 Calma 4 Nordeste 0 -- -- 79
2020-11-10 07:00:00 9.6 3 Nordeste 4 Nordeste 0 -- -- 80
2020-11-10 06:00:00 9.4 3 Nordeste 5 Nordeste 0 -- -- 81
2020-11-10 05:00:00 9.9 0 Calma 6 Nordeste 0 -- -- 80
2020-11-10 04:00:00 10.1 2 Este 6 Nordeste 0 -- -- 80
2020-11-10 03:00:00 10.4 3 Nordeste 6 Nordeste 0 -- -- 80
2020-11-10 02:00:00 10.5 3 Nordeste 6 Nordeste 0 -- -- 82
2020-11-10 01:00:00 11.2 2 Nordeste 8 Nordeste 0 -- -- 84
2020-11-10 00:00:00 11.6 0 Calma 5 Nordeste 0 -- -- 83
2020-11-09 23:00:00 12 3 Nordeste 4 Nordeste 0 -- -- 82
2020-11-09 22:00:00 12.5 2 Nordeste 4 Nordeste 0 -- -- 81
2020-11-09 21:00:00 13.3 4 Nordeste 7 Sudeste 0 -- -- 80
2020-11-09 20:00:00 14 7 Sudeste 10 Este 0 -- -- 77
2020-11-09 19:00:00 15.3 0 Calma 13 Sur 0 -- -- 69
2020-11-09 18:00:00 17.1 6 Sudoeste 14 Oeste 0 -- -- 62
2020-11-09 17:00:00 18.7 9 Oeste 17 Sudoeste 0 -- -- 52
2020-11-09 16:00:00 19.7 6 Sudoeste -- -- -- -- -- 56
2020-11-09 15:00:00 21.2 8 Sudoeste 17 Oeste 0 -- -- 53
2020-11-09 14:00:00 20 7 Oeste 15 Sudoeste 0 -- -- 56
2020-11-09 13:00:00 20.3 5 Sudoeste 13 Sudoeste 0 -- -- 63
2020-11-09 12:00:00 17.7 6 Sur 13 Sur 0 -- -- 77
2020-11-09 11:00:00 15.1 2 Sur 6 Este 0 -- -- 84
2020-11-09 10:00:00 13.9 3 Sudoeste 4 Sudoeste 0 -- -- 84
2020-11-09 09:00:00 12.5 4 Este 8 Sur 0 -- -- 87
2020-11-09 08:00:00 11.7 5 Nordeste 8 Nordeste 0 -- -- 89
2020-11-09 07:00:00 10.6 2 Este 6 Nordeste 0 -- -- 86
2020-11-09 06:00:00 10.6 0 Calma 6 Nordeste 0 -- -- 86
2020-11-09 05:00:00 11.2 4 Nordeste 8 Nordeste 0 -- -- 85
2020-11-09 04:00:00 11 0 Calma 4 Este 0 -- -- 86
2020-11-09 03:00:00 11.4 3 Este 5 Este 0 -- -- 85
2020-11-09 02:00:00 11.3 2 Este 5 Este 0 -- -- 86
2020-11-09 01:00:00 11.2 0 Calma 4 Este 0 -- -- 86
2020-11-09 00:00:00 -- -- -- -- -- -- -- -- --
2020-11-08 23:00:00 -- -- -- -- -- -- -- -- --
2020-11-08 22:00:00 -- -- -- -- -- -- -- -- --
2020-11-08 21:00:00 -- -- -- -- -- -- -- -- --
2020-11-08 20:00:00 -- -- -- -- -- -- -- -- --
2020-11-08 19:00:00 -- -- -- -- -- -- -- -- --
2020-11-08 18:00:00 -- -- -- -- -- -- -- -- --
2020-11-08 17:00:00 -- -- -- -- -- -- -- -- --
2020-11-08 16:00:00 -- -- -- -- -- -- -- -- --
2020-11-08 15:00:00 -- -- -- -- -- -- -- -- --
2020-11-08 14:00:00 -- -- -- -- -- -- -- -- --
2020-11-08 13:00:00 -- -- -- -- -- -- -- -- --
2020-11-08 12:00:00 -- -- -- -- -- -- -- -- --
2020-11-08 11:00:00 -- -- -- -- -- -- -- -- --
2020-11-08 10:00:00 -- -- -- -- -- -- -- -- --
2020-11-08 09:00:00 -- -- -- -- -- -- -- -- --
2020-11-08 08:00:00 -- -- -- -- -- -- -- -- --
2020-11-08 07:00:00 -- -- -- -- -- -- -- -- --
2020-11-08 06:00:00 -- -- -- -- -- -- -- -- --
2020-11-08 05:00:00 -- -- -- -- -- -- -- -- --
2020-11-08 04:00:00 -- -- -- -- -- -- -- -- --
2020-11-08 03:00:00 -- -- -- -- -- -- -- -- --
2020-11-08 02:00:00 -- -- -- -- -- -- -- -- --
2020-11-08 01:00:00 -- -- -- -- -- -- -- -- --
2020-11-08 00:00:00 -- -- -- -- -- -- -- -- --
2020-11-07 23:00:00 -- -- -- -- -- -- -- -- --
2020-11-07 22:00:00 -- -- -- -- -- -- -- -- --
2020-11-07 21:00:00 -- -- -- -- -- -- -- -- --
2020-11-07 20:00:00 -- -- -- -- -- -- -- -- --
2020-11-07 19:00:00 -- -- -- -- -- -- -- -- --
2020-11-07 18:00:00 -- -- -- -- -- -- -- -- --
2020-11-07 17:00:00 -- -- -- -- -- -- -- -- --
2020-11-07 16:00:00 -- -- -- -- -- -- -- -- --
2020-11-07 15:00:00 -- -- -- -- -- -- -- -- --
2020-11-07 14:00:00 -- -- -- -- -- -- -- -- --
2020-11-07 13:00:00 -- -- -- -- -- -- -- -- --
2020-11-07 12:00:00 -- -- -- -- -- -- -- -- --
2020-11-07 11:00:00 13.9 4 Oeste 21 Oeste 0 -- -- 85
2020-11-07 10:00:00 13.2 10 Oeste 23 Sudoeste 0 -- -- 84
2020-11-07 09:00:00 12.6 4 Sur 24 Sudoeste 0 -- -- 90
2020-11-07 08:00:00 12.2 11 Oeste 33 Oeste 0 -- -- 87
2020-11-07 07:00:00 12.7 12 Sudoeste 27 Sudoeste 0.8 -- -- 93
2020-11-07 06:00:00 12.9 8 Sudoeste 32 Sudoeste 0 -- -- 92
2020-11-07 05:00:00 13.1 15 Sudoeste 33 Sudoeste 1.2 -- -- 91
2020-11-07 04:00:00 13.3 8 Sudoeste 40 Sur 0.6 -- -- 83
2020-11-07 03:00:00 13.7 7 Oeste 13 Sudoeste 0 -- -- 85
2020-11-07 02:00:00 13.8 4 Oeste 23 Sur 0.8 -- -- 84
2020-11-07 01:00:00 14.3 4 Oeste 18 Oeste 0.2 -- -- 76
2020-11-07 00:00:00 14.4 6 Oeste 24 Sudeste 0 -- -- 75
2020-11-06 23:00:00 14.6 12 Este 24 Sudeste 0 -- -- 74
2020-11-06 22:00:00 14.5 7 Este 34 Oeste 1 -- -- 75
2020-11-06 21:00:00 15.7 6 Este 15 Nordeste 0.4 -- -- 75
2020-11-06 20:00:00 16.9 3 Sur 15 Oeste 0 -- -- 66
2020-11-06 19:00:00 17.9 5 Nordeste 16 Nordeste 0 -- -- 55
2020-11-06 18:00:00 18.3 8 Nordeste 17 Este 0 -- -- 55
2020-11-06 17:00:00 19.4 0 Calma 17 Sudeste 0 -- -- 56
2020-11-06 16:00:00 20.4 8 Este 28 Sudoeste 0 -- -- 49
2020-11-06 15:00:00 22.5 14 Sudoeste 36 Este 0 -- -- 42
2020-11-06 14:00:00 22.2 9 Sudeste 39 Sudeste 0 -- -- 44
2020-11-06 13:00:00 21 14 Sudeste 38 Este 0 -- -- 46
2020-11-06 12:00:00 20.3 14 Este 44 Sudeste 0 -- -- 48
2020-11-06 11:00:00 20.5 13 Este 32 Este 0 -- -- 48
2020-11-06 10:00:00 18.8 10 Este 35 Este 0 -- -- 54
2020-11-06 09:00:00 17.6 10 Este 37 Este 0 -- -- 57
2020-11-06 08:00:00 17 9 Este 30 Este 0 -- -- 58
2020-11-06 07:00:00 17 9 Noroeste 32 Sudeste 0 -- -- 59
2020-11-06 06:00:00 17.1 5 Noroeste 31 Sudeste 0 -- -- 58
2020-11-06 05:00:00 17.5 12 Este 40 Sudeste 0 -- -- 54
2020-11-06 04:00:00 16.7 13 Sudeste 31 Sudeste 0 -- -- 53
2020-11-06 03:00:00 15.7 12 Nordeste 25 Este 0 -- -- 60
2020-11-06 02:00:00 15.1 7 Este 26 Este 0 -- -- 66
2020-11-06 01:00:00 15 3 Nordeste 26 Este 0 -- -- 70
2020-11-06 00:00:00 15.2 4 Norte 31 Este 0 -- -- 69
2020-11-05 23:00:00 15.9 14 Este 44 Este 0 -- -- 65
2020-11-05 22:00:00 15.4 14 Este 42 Este 0 -- -- 67
2020-11-05 21:00:00 14.7 7 Norte 24 Sudeste 0 -- -- 71
2020-11-05 20:00:00 14.7 7 Noroeste 41 Este 0 -- -- 74
2020-11-05 19:00:00 14.7 6 Nordeste 20 Este 0 -- -- 80
2020-11-05 18:00:00 15.6 5 Este 17 Nordeste 0 -- -- 82
2020-11-05 17:00:00 16.6 5 Nordeste 16 Norte 0 -- -- 77
2020-11-05 16:00:00 17.4 4 Sur 24 Este 0 -- -- 79
2020-11-05 15:00:00 16.4 9 Este 27 Este 0 -- -- 84
2020-11-05 14:00:00 14.9 10 Sudeste 28 Este 1 -- -- 89
2020-11-05 13:00:00 14 9 Sur 52 Sudoeste 3.2 -- -- 88
2020-11-05 12:00:00 13 14 Sur 38 Sur 10.8 -- -- 93
2020-11-05 11:00:00 11.9 8 Este 24 Sudoeste 21.6 -- -- 92
2020-11-05 10:00:00 12.5 23 Oeste 44 Oeste 6.2 -- -- 89
2020-11-05 09:00:00 13.6 16 Sur 51 Sudoeste 0 -- -- 82
2020-11-05 08:00:00 13.3 12 Sudeste 46 Sur 0.8 -- -- 83
2020-11-05 07:00:00 13.1 13 Sur 50 Sudoeste 1.8 -- -- 86
2020-11-05 06:00:00 13.3 18 Sur 65 Este 4 -- -- 85
2020-11-05 05:00:00 13.5 18 Sur 62 Sur 1.2 -- -- 83
2020-11-05 04:00:00 13.3 22 Sudeste 51 Este 3.8 -- -- 84
2020-11-05 03:00:00 12.8 15 Sudeste 54 Este 1.6 -- -- 88
2020-11-05 02:00:00 12.3 13 Este 42 Sudeste 6 -- -- 87
2020-11-05 01:00:00 13 13 Sudeste 49 Sur 3.4 -- -- 86
2020-11-05 00:00:00 13.3 15 Sur 49 Este 12.6 -- -- 90
2020-11-04 23:00:00 13.4 5 Este 36 Sudeste 0.8 -- -- 85
2020-11-04 22:00:00 13.3 6 Este 18 Sudeste 0 -- -- 82
2020-11-04 21:00:00 13.2 6 Este 17 Este 0 -- -- 82
2020-11-04 20:00:00 13.2 7 Este 28 Este 0 -- -- 81
2020-11-04 19:00:00 13.1 8 Este 22 Este 0 -- -- 82
2020-11-04 18:00:00 13.7 5 Este 18 Nordeste 0 -- -- 84
2020-11-04 17:00:00 14 5 Sudeste 31 Este 0 -- -- 81
2020-11-04 16:00:00 13.8 14 Este 27 Nordeste 2.2 -- -- 85
2020-11-04 15:00:00 14.2 11 Sudoeste 26 Oeste 0.4 -- -- 85
2020-11-04 14:00:00 15.5 6 Sudeste 17 Sudeste 0 -- -- 73
2020-11-04 13:00:00 15.9 6 Sudeste 24 Sudeste 0 -- -- 70
2020-11-04 12:00:00 17.1 8 Sudeste 19 Sur 0 -- -- 65
2020-11-04 11:00:00 15.7 8 Este 18 Sudeste 0 -- -- 70
2020-11-04 10:00:00 14 4 Este 29 Este 0 -- -- 76
2020-11-04 09:00:00 13.2 15 Este 24 Este 0 -- -- 77
2020-11-04 08:00:00 12.7 9 Este 19 Este 0 -- -- 80
2020-11-04 07:00:00 12.7 12 Nordeste 22 Este 0 -- -- 82
2020-11-04 06:00:00 12.7 7 Este 19 Este 0 -- -- 81
2020-11-04 05:00:00 13 8 Este 19 Este 0 -- -- 78
2020-11-04 04:00:00 13.1 4 Este 12 Este 0 -- -- 81
2020-11-04 03:00:00 13.3 5 Sudeste 9 Este 0 -- -- 84
2020-11-04 02:00:00 13.6 0 Calma 3 Sudoeste 0 -- -- 86
2020-11-04 01:00:00 14.2 0 Calma 4 Noroeste 0 -- -- 82
2020-11-04 00:00:00 14.7 0 Calma 5 Noroeste 0 -- -- 80
2020-11-03 23:00:00 15.3 2 Sur 4 Sur 0 -- -- 77
2020-11-03 22:00:00 15.7 0 Calma 3 Noroeste 0 -- -- 73
2020-11-03 21:00:00 16.1 0 Calma 6 Este 0 -- -- 72
2020-11-03 20:00:00 16.9 2 Noroeste 6 Sudeste 0 -- -- 71
2020-11-03 19:00:00 17.7 5 Sudeste 13 Sudeste 0 -- -- 68
2020-11-03 18:00:00 19.8 0 Calma 7 Sudoeste 0 -- -- 60
2020-11-03 17:00:00 21.4 6 Noroeste 10 Sudoeste 0 -- -- 53
2020-11-03 16:00:00 23.7 6 Oeste 15 Oeste 0 -- -- 43
2020-11-03 15:00:00 24.6 5 Oeste 16 Sudoeste 0 -- -- 39
2020-11-03 14:00:00 25 9 Sudoeste 17 Oeste 0 -- -- 37
2020-11-03 13:00:00 25.2 8 Oeste 15 Oeste 0 -- -- 36
2020-11-03 12:00:00 24.9 7 Sudoeste 12 Oeste 0 -- -- 36
2020-11-03 11:00:00 21.9 4 Oeste 8 Sudoeste 0 -- -- 42
2020-11-03 10:00:00 18.1 2 Sur 4 Sudoeste 0 -- -- 56
2020-11-03 09:00:00 14.9 0 Calma 8 Nordeste 0 -- -- 61
2020-11-03 08:00:00 13.9 0 Calma 8 Este 0 -- -- 61
2020-11-03 07:00:00 13.7 0 Calma 11 Nordeste 0 -- -- 61
2020-11-03 06:00:00 13.9 3 Este 6 Este 0 -- -- 61
2020-11-03 05:00:00 13.7 0 Calma 5 Este 0 -- -- 62
2020-11-03 04:00:00 14.1 2 Nordeste 6 Nordeste 0 -- -- 62
2020-11-03 03:00:00 14.9 0 Calma 7 Nordeste 0 -- -- 60
2020-11-03 02:00:00 14.9 5 Nordeste 10 Nordeste 0 -- -- 62
2020-11-03 01:00:00 15.3 2 Norte 7 Nordeste 0 -- -- 62
2020-11-03 00:00:00 15.6 3 Este 6 Nordeste 0 -- -- 62
2020-11-02 23:00:00 16.1 2 Nordeste 4 Norte 0 -- -- 60
2020-11-02 22:00:00 15.8 0 Calma 5 Este 0 -- -- 62
2020-11-02 21:00:00 16.6 0 Calma 7 Este 0 -- -- 62
2020-11-02 20:00:00 17.5 2 Nordeste 5 Este 0 -- -- 62
2020-11-02 19:00:00 19.4 0 Calma 5 Oeste 0 -- -- 58
2020-11-02 18:00:00 22.3 4 Oeste 9 Oeste 0 -- -- 49
2020-11-02 17:00:00 24.6 6 Oeste 12 Sudoeste 0 -- -- 45
2020-11-02 16:00:00 27.2 9 Sudoeste 14 Sur 0 -- -- 35
2020-11-02 15:00:00 28.7 8 Sudoeste 15 Sudoeste 0 -- -- 31
2020-11-02 14:00:00 28.3 8 Sudoeste 17 Sudoeste 0 -- -- 30
2020-11-02 13:00:00 27.6 5 Sur 14 Sudoeste 0 -- -- 31
2020-11-02 12:00:00 26.4 8 Sudoeste 13 Sur 0 -- -- 33
2020-11-02 11:00:00 23.8 6 Sudoeste 13 Sur 0 -- -- 36
2020-11-02 10:00:00 19.7 0 Calma 9 Nordeste 0 -- -- 42
2020-11-02 09:00:00 15.8 5 Este 9 Este 0 -- -- 51
2020-11-02 08:00:00 14.8 4 Nordeste 8 Nordeste 0 -- -- 49
2020-11-02 07:00:00 15 0 Calma 16 Este 0 -- -- 50
2020-11-02 06:00:00 16.2 7 Nordeste 14 Nordeste 0 -- -- 46
2020-11-02 05:00:00 14.3 3 Este 5 Este 0 -- -- 56
2020-11-02 04:00:00 14.5 0 Calma 4 Este 0 -- -- 59
2020-11-02 03:00:00 14.9 0 Calma 5 Este 0 -- -- 58
2020-11-02 02:00:00 15.2 0 Calma 5 Nordeste 0 -- -- 53
2020-11-02 01:00:00 15.3 2 Este 4 Este 0 -- -- 63
2020-11-02 00:00:00 15.3 2 Este 5 Este 0 -- -- 57
2020-11-01 23:00:00 15.9 0 Calma 5 Nordeste 0 -- -- 60
2020-11-01 22:00:00 16.7 3 Nordeste 5 Nordeste 0 -- -- 65
2020-11-01 21:00:00 17.1 3 Norte 4 Norte 0 -- -- 65
2020-11-01 20:00:00 17.5 0 Calma 3 Este 0 -- -- 64
2020-11-01 19:00:00 19.5 0 Calma 6 Noroeste 0 -- -- 58
2020-11-01 18:00:00 22.2 3 Sur 10 Oeste 0 -- -- 50
2020-11-01 17:00:00 24.3 5 Oeste 13 Oeste 0 -- -- 47
2020-11-01 16:00:00 26.8 8 Oeste 17 Sudoeste 0 -- -- 42
2020-11-01 15:00:00 28 10 Sudoeste 17 Sudoeste 0 -- -- 38
2020-11-01 14:00:00 28.4 8 Sudoeste 18 Sur 0 -- -- 35
2020-11-01 13:00:00 27.5 6 Oeste 13 Sur 0 -- -- 35
2020-11-01 12:00:00 25.8 5 Sur 10 Sur 0 -- -- 38
2020-11-01 11:00:00 23.1 3 Sudoeste 8 Sudoeste 0 -- -- 45
2020-11-01 10:00:00 18.6 0 Calma 5 Sudeste 0 -- -- 58
2020-11-01 09:00:00 14.8 0 Calma 5 Sudeste 0 -- -- 66
2020-11-01 08:00:00 14 2 Este 6 Noroeste 0 -- -- 61
2020-11-01 07:00:00 13.8 2 Sudeste 7 Este 0 -- -- 62
2020-11-01 06:00:00 14.3 2 Norte 9 Nordeste 0 -- -- 60
2020-11-01 05:00:00 14.3 0 Calma 9 Nordeste 0 -- -- 61
2020-11-01 04:00:00 14.4 4 Nordeste 6 Nordeste 0 -- -- 62
2020-11-01 03:00:00 14.3 0 Calma 6 Nordeste 0 -- -- 67
2020-11-01 02:00:00 15 4 Nordeste 6 Nordeste 0 -- -- 64
2020-11-01 01:00:00 15.2 4 Este 10 Nordeste 0 -- -- 66
2020-11-01 00:00:00 15.5 5 Nordeste 8 Nordeste 0 -- -- 69
2020-10-31 23:00:00 15.3 0 Calma 8 Nordeste 0 -- -- 71
2020-10-31 22:00:00 15.4 4 Nordeste 6 Nordeste 0 -- -- 71
2020-10-31 21:00:00 15.9 2 Este 4 Este 0 -- -- 69
2020-10-31 20:00:00 16.9 2 Nordeste 5 Este 0 -- -- 64
2020-10-31 19:00:00 19.2 0 Calma 10 Noroeste 0 -- -- 58
2020-10-31 18:00:00 21.8 4 Oeste 15 Sur 0 -- -- 52
2020-10-31 17:00:00 23.9 8 Sudoeste 15 Oeste 0 -- -- 47
2020-10-31 16:00:00 26.4 8 Oeste 17 Sur 0 -- -- 40
2020-10-31 15:00:00 27.1 7 Oeste 20 Oeste 0 -- -- 37
2020-10-31 14:00:00 27.4 8 Sudoeste 14 Sudoeste 0 -- -- 34
2020-10-31 13:00:00 26.2 8 Oeste 14 Sudoeste 0 -- -- 35
2020-10-31 12:00:00 24.3 4 Oeste 18 Sudoeste 0 -- -- 38
2020-10-31 11:00:00 21.8 7 Sudoeste 14 Sur 0 -- -- 41
2020-10-31 10:00:00 17.6 0 Calma 5 Nordeste 0 -- -- 54
2020-10-31 09:00:00 14.1 3 Norte 10 Noroeste 0 -- -- 59
2020-10-31 08:00:00 13.2 3 Este 8 Este 0 -- -- 60
2020-10-31 07:00:00 13.4 0 Calma 9 Sudeste 0 -- -- 61
2020-10-31 06:00:00 13.8 0 Calma 8 Este 0 -- -- 57
2020-10-31 05:00:00 14.3 3 Este 15 Este 0 -- -- 57
2020-10-31 04:00:00 14.6 3 Este 14 Este 0 -- -- 54
2020-10-31 03:00:00 15.9 9 Este 17 Este 0 -- -- 52
2020-10-31 02:00:00 15.3 7 Nordeste 15 Este 0 -- -- 51
2020-10-31 01:00:00 15.6 0 Calma 20 Nordeste 0 -- -- 51
2020-10-31 00:00:00 15.9 6 Sudeste 21 Este 0 -- -- 52
2020-10-30 23:00:00 15.7 2 Sudoeste 12 Nordeste 0 -- -- 56
2020-10-30 22:00:00 16.7 6 Este 26 Este 0 -- -- 51
2020-10-30 21:00:00 16.1 2 Este 10 Este 0 -- -- 54
2020-10-30 20:00:00 16.4 2 Nordeste 5 Este 0 -- -- 60
2020-10-30 19:00:00 17.2 0 Calma 5 Este 0 -- -- 57
2020-10-30 18:00:00 18.5 2 Oeste 13 Sudeste 0 -- -- 53
2020-10-30 17:00:00 19.9 6 Este 14 Sudeste 0 -- -- 49
2020-10-30 16:00:00 23.2 8 Sur 22 Sudeste 0 -- -- 42
2020-10-30 15:00:00 23.1 9 Sudeste 23 Este 0 -- -- 42
2020-10-30 14:00:00 23.7 10 Sudeste 22 Sur 0 -- -- 42
2020-10-30 13:00:00 23.2 12 Sur 27 Sudoeste 0 -- -- 41
2020-10-30 12:00:00 21.6 11 Sur -- -- -- -- -- 42
2020-10-30 11:00:00 20.3 7 Sur 19 Sudoeste 0 -- -- 42
2020-10-30 10:00:00 17.4 5 Norte 13 Nordeste 0 -- -- 46
2020-10-30 09:00:00 15 3 Norte 17 Nordeste 0 -- -- 52
2020-10-30 08:00:00 14.6 9 Este 27 Este 0 -- -- 54
2020-10-30 07:00:00 14.7 9 Este 18 Nordeste 0 -- -- 55
2020-10-30 06:00:00 14.3 2 Noroeste 9 Este 0 -- -- 61
2020-10-30 05:00:00 15.1 4 Noroeste 18 Nordeste 0 -- -- 59
2020-10-30 04:00:00 15.2 4 Nordeste 16 Norte 0 -- -- 60
2020-10-30 03:00:00 14.8 4 Sudeste 22 Este 0 -- -- 63
2020-10-30 02:00:00 15.2 14 Este 24 Este 0 -- -- 63
2020-10-30 01:00:00 15.6 6 Este 22 Nordeste 0 -- -- 61
2020-10-30 00:00:00 16.1 5 Este 15 Nordeste 0 -- -- 57
2020-10-29 23:00:00 16.3 3 Este 17 Este 0 -- -- 56
2020-10-29 22:00:00 16.2 5 Este 15 Este 0 -- -- 54
2020-10-29 21:00:00 16.5 10 Nordeste 30 Este 0 -- -- 51
2020-10-29 20:00:00 16.7 12 Este 30 Este 0 -- -- 50
2020-10-29 19:00:00 17.3 3 Nordeste 22 Este 0 -- -- 46
2020-10-29 18:00:00 19.2 6 Este 23 Sudeste 0 -- -- 40
2020-10-29 17:00:00 20.9 12 Sudeste 24 Sur 0 -- -- 36
2020-10-29 16:00:00 23.3 11 Sudeste 28 Este 0 -- -- 32
2020-10-29 15:00:00 24.6 10 Sudeste 32 Este 0 -- -- 30
2020-10-29 14:00:00 24.4 11 Sudeste 26 Sur 0 -- -- 31
2020-10-29 13:00:00 23.5 12 Sudeste 26 Sudoeste 0 -- -- 31
2020-10-29 12:00:00 22.3 12 Sur 24 Sudeste 0 -- -- 30
2020-10-29 11:00:00 21 9 Sudeste 23 Sur 0 -- -- 32
2020-10-29 10:00:00 18.8 4 Este 17 Sudeste 0 -- -- 38
2020-10-29 09:00:00 15.6 2 Sudeste 12 Este 0 -- -- 48
2020-10-29 08:00:00 16.5 3 Sudeste 20 Nordeste 0 -- -- 45
2020-10-29 07:00:00 17.1 8 Este 22 Nordeste 0 -- -- 39
2020-10-29 06:00:00 15.6 11 Este 19 Este 0 -- -- 44
2020-10-29 05:00:00 13.1 0 Calma 5 Este 0 -- -- 65
2020-10-29 04:00:00 13.2 0 Calma 4 Este 0 -- -- 66
2020-10-29 03:00:00 13.1 2 Este 4 Este 0 -- -- 69
2020-10-29 02:00:00 13.2 0 Calma 4 Sudoeste 0 -- -- 69
2020-10-29 01:00:00 13.8 3 Este 7 Nordeste 0 -- -- 68
2020-10-29 00:00:00 14 3 Este 7 Nordeste 0 -- -- 68
2020-10-28 23:00:00 14.2 3 Nordeste 7 Nordeste 0 -- -- 67
2020-10-28 22:00:00 14.2 4 Nordeste 8 Nordeste 0 -- -- 65
2020-10-28 21:00:00 14.3 3 Nordeste 6 Nordeste 0 -- -- 62
2020-10-28 20:00:00 15 0 Calma 4 Este 0 -- -- 56
2020-10-28 19:00:00 17 0 Calma 5 Oeste 0 -- -- 52
2020-10-28 18:00:00 19.4 4 Sudoeste 11 Sudoeste 0 -- -- 44
2020-10-28 17:00:00 22 5 Oeste 13 Sudoeste 0 -- -- 40
2020-10-28 16:00:00 23.8 8 Sudoeste 18 Sur 0 -- -- 37
2020-10-28 15:00:00 24.7 9 Sudoeste 18 Sudoeste 0 -- -- 35
2020-10-28 14:00:00 24.6 9 Sudoeste 15 Sur 0 -- -- 32
2020-10-28 13:00:00 23.7 8 Sudoeste 13 Sur 0 -- -- 33
2020-10-28 12:00:00 21.5 5 Sudoeste 10 Sur 0 -- -- 35
2020-10-28 11:00:00 18.7 3 Oeste 7 Sudoeste 0 -- -- 41
2020-10-28 10:00:00 14.6 0 Calma 3 Sudeste 0 -- -- 51
2020-10-28 09:00:00 11.5 2 Este 8 Nordeste 0 -- -- 57
2020-10-28 08:00:00 10 2 Este 5 Este 0 -- -- 62
2020-10-28 07:00:00 10.2 5 Nordeste 10 Nordeste 0 -- -- 60
2020-10-28 06:00:00 9.6 3 Nordeste 6 Sudeste 0 -- -- 64
2020-10-28 05:00:00 9.7 3 Este 6 Este 0 -- -- 62
2020-10-28 04:00:00 10 2 Este 7 Nordeste 0 -- -- 57
2020-10-28 03:00:00 10.2 4 Este 8 Nordeste 0 -- -- 59
2020-10-28 02:00:00 10.6 3 Nordeste 6 Nordeste 0 -- -- 60
2020-10-28 01:00:00 11 4 Nordeste 9 Nordeste 0 -- -- 58
2020-10-28 00:00:00 10.7 3 Nordeste 10 Nordeste 0 -- -- 63